createdAt,value
2019-04-29T00:01:50.142Z,101077.36
2019-04-29T00:04:19.043Z,101078.80
2019-04-29T00:06:48.306Z,101081.77
2019-04-29T00:09:18.397Z,101035.66
2019-04-29T00:11:47.359Z,101083.63
2019-04-29T00:14:16.422Z,101082.52
2019-04-29T00:17:00.572Z,101076.03
2019-04-29T00:19:48.646Z,101086.97
2019-04-29T00:22:17.643Z,101087.56
2019-04-29T00:24:46.526Z,101089.74
2019-04-29T00:27:15.472Z,101083.69
2019-04-29T00:29:44.427Z,101079.52
2019-04-29T00:32:13.275Z,101081.36
2019-04-29T00:34:42.363Z,101086.59
2019-04-29T00:37:28.536Z,101086.91
2019-04-29T00:40:15.430Z,101079.27
2019-04-29T00:42:54.138Z,101082.67
2019-04-29T00:45:23.881Z,101085.45
2019-04-29T00:47:53.108Z,101081.44
2019-04-29T00:50:22.092Z,101087.27
2019-04-29T00:52:51.072Z,101083.03
2019-04-29T00:55:22.920Z,101083.34
2019-04-29T00:57:51.849Z,101081.12
2019-04-29T01:00:32.928Z,101087.08
2019-04-29T01:03:01.929Z,101084.17
2019-04-29T01:05:31.186Z,101082.73
2019-04-29T01:08:00.392Z,101090.38
2019-04-29T01:10:29.726Z,101091.63
2019-04-29T01:12:59.238Z,101090.45
2019-04-29T01:15:28.198Z,101091.14
2019-04-29T01:17:56.995Z,101089.80
2019-04-29T01:20:25.995Z,101094.59
2019-04-29T01:22:54.885Z,101092.19
2019-04-29T01:25:23.779Z,101091.05
2019-04-29T01:27:59.298Z,101089.79
2019-04-29T01:31:11.417Z,101098.92
2019-04-29T01:33:43.346Z,101098.84
2019-04-29T01:36:35.624Z,101097.93
2019-04-29T01:39:07.671Z,101094.97
2019-04-29T01:41:43.936Z,101097.09
2019-04-29T01:44:12.870Z,101100.48
2019-04-29T01:46:41.754Z,101096.02
2019-04-29T01:49:10.735Z,101101.16
2019-04-29T01:51:39.572Z,101099.98
2019-04-29T01:54:08.469Z,101104.61
2019-04-29T01:56:37.526Z,101095.36
2019-04-29T01:59:06.476Z,101097.82
2019-04-29T02:01:35.473Z,101104.73
2019-04-29T02:04:04.655Z,101105.15
2019-04-29T02:06:33.678Z,101106.52
2019-04-29T02:09:04.287Z,101108.34
2019-04-29T02:11:33.232Z,101107.09
2019-04-29T02:14:02.084Z,101103.82
2019-04-29T02:16:31.022Z,101109.13
2019-04-29T02:18:59.952Z,101105.80
2019-04-29T02:21:28.891Z,101105.49
2019-04-29T02:24:07.262Z,101106.41
2019-04-29T02:26:36.300Z,101108.80
2019-04-29T02:29:05.238Z,101105.38
2019-04-29T02:31:42.483Z,101108.80
2019-04-29T02:34:11.786Z,101104.13
2019-04-29T02:36:40.826Z,101106.59
2019-04-29T02:39:28.670Z,101106.10
2019-04-29T02:42:15.617Z,101104.28
2019-04-29T02:44:44.590Z,101101.44
2019-04-29T02:47:13.747Z,101102.42
2019-04-29T02:49:42.672Z,101101.95
2019-04-29T02:52:11.529Z,101100.89
2019-04-29T02:54:40.377Z,101098.84
2019-04-29T02:57:32.795Z,101093.12
2019-04-29T03:00:16.791Z,101097.97
2019-04-29T03:03:00.615Z,101094.81
2019-04-29T03:05:34.527Z,101103.00
2019-04-29T03:08:03.526Z,101106.38
2019-04-29T03:10:32.575Z,101103.36
2019-04-29T03:13:01.538Z,101096.78
2019-04-29T03:15:32.172Z,101101.97
2019-04-29T03:18:02.090Z,101104.39
2019-04-29T03:20:49.970Z,101104.63
2019-04-29T03:23:20.711Z,101107.20
2019-04-29T03:25:49.686Z,101105.03
2019-04-29T03:28:18.561Z,101102.23
2019-04-29T03:30:47.504Z,101096.23
2019-04-29T03:33:16.300Z,101100.00
2019-04-29T03:35:45.279Z,101102.16
2019-04-29T03:38:14.134Z,101104.67
2019-04-29T03:40:43.305Z,101098.80
2019-04-29T03:43:12.195Z,101106.16
2019-04-29T03:45:41.137Z,101107.70
2019-04-29T03:48:10.184Z,101106.38
2019-04-29T03:50:39.137Z,101106.42
2019-04-29T03:53:08.086Z,101105.14
2019-04-29T03:55:40.541Z,101106.16
2019-04-29T03:58:07.857Z,101103.30
2019-04-29T04:00:36.793Z,101109.80
2019-04-29T04:03:22.717Z,101112.08
2019-04-29T04:06:15.416Z,101108.39
2019-04-29T04:09:04.779Z,101114.69
2019-04-29T04:11:18.331Z,101112.03
2019-04-29T04:13:47.074Z,101114.39
2019-04-29T04:16:32.881Z,101117.81
2019-04-29T04:19:06.917Z,101114.52
2019-04-29T04:21:35.767Z,101118.58
2019-04-29T04:24:04.805Z,101118.58
2019-04-29T04:26:33.629Z,101112.23
2019-04-29T04:29:02.410Z,101110.46
2019-04-29T04:31:31.274Z,101110.46
2019-04-29T04:34:00.173Z,101125.75
2019-04-29T04:36:29.219Z,101125.53
2019-04-29T04:38:58.010Z,101131.11
2019-04-29T04:41:26.990Z,101131.80
2019-04-29T04:43:55.894Z,101132.98
2019-04-29T04:46:24.873Z,101138.21
2019-04-29T04:48:53.733Z,101141.63
2019-04-29T04:51:22.755Z,101145.72
2019-04-29T04:53:51.681Z,101148.64
2019-04-29T04:56:20.712Z,101152.39
2019-04-29T04:58:49.682Z,101159.67
2019-04-29T05:01:18.636Z,101154.00
2019-04-29T05:03:47.657Z,101157.71
2019-04-29T05:06:16.526Z,101164.46
2019-04-29T05:08:45.513Z,101163.29
2019-04-29T05:11:14.492Z,101161.15
2019-04-29T05:13:43.499Z,101164.21
2019-04-29T05:16:12.473Z,101165.05
2019-04-29T05:18:41.414Z,101172.94
2019-04-29T05:21:10.473Z,101167.44
2019-04-29T05:23:41.634Z,101175.42
2019-04-29T05:26:09.919Z,101179.44
2019-04-29T05:28:38.834Z,101176.59
2019-04-29T05:31:07.773Z,101173.73
2019-04-29T05:33:37.181Z,101176.80
2019-04-29T05:36:24.299Z,101181.92
2019-04-29T05:38:56.927Z,101186.70
2019-04-29T05:41:30.163Z,101193.75
2019-04-29T05:44:06.830Z,101194.07
2019-04-29T05:46:45.920Z,101197.35
2019-04-29T05:49:17.841Z,101201.22
2019-04-29T05:51:52.545Z,101201.92
2019-04-29T05:54:21.664Z,101201.95
2019-04-29T05:56:50.664Z,101205.51
2019-04-29T05:59:19.662Z,101206.13
2019-04-29T06:01:48.959Z,101201.98
2019-04-29T06:04:18.330Z,101202.85
2019-04-29T06:06:47.185Z,101209.28
2019-04-29T06:09:17.013Z,101209.80
2019-04-29T06:11:48.051Z,101205.84
2019-04-29T06:14:16.930Z,101207.87
2019-04-29T06:16:45.913Z,101207.88
2019-04-29T06:19:14.876Z,101210.92
2019-04-29T06:21:43.662Z,101213.11
2019-04-29T06:24:12.477Z,101207.28
2019-04-29T06:26:43.617Z,101212.98
2019-04-29T06:29:12.301Z,101212.31
2019-04-29T06:31:41.062Z,101215.98
2019-04-29T06:34:10.063Z,101222.98
2019-04-29T06:36:38.965Z,101215.94
2019-04-29T06:39:07.957Z,101223.91
2019-04-29T06:41:40.610Z,101224.20
2019-04-29T06:44:15.806Z,101225.06
2019-04-29T06:46:38.152Z,101221.33
2019-04-29T06:49:10.344Z,101220.41
2019-04-29T06:51:37.734Z,101225.06
2019-04-29T06:54:06.640Z,101220.25
2019-04-29T06:56:35.604Z,101223.70
2019-04-29T06:59:07.536Z,101223.61
2019-04-29T07:01:37.511Z,101219.72
2019-04-29T07:04:05.885Z,101218.41
2019-04-29T07:06:34.880Z,101222.23
2019-04-29T07:09:05.039Z,101219.53
2019-04-29T07:11:36.642Z,101212.78
2019-04-29T07:14:04.671Z,101215.06
2019-04-29T07:16:33.627Z,101213.63
2019-04-29T07:19:02.569Z,101215.08
2019-04-29T07:21:31.504Z,101218.95
2019-04-29T07:24:00.425Z,101222.67
2019-04-29T07:26:29.485Z,101222.47
2019-04-29T07:28:58.536Z,101219.87
2019-04-29T07:31:28.294Z,101216.57
2019-04-29T07:33:59.107Z,101219.36
2019-04-29T07:36:28.112Z,101218.94
2019-04-29T07:38:57.121Z,101218.31
2019-04-29T07:41:26.023Z,101211.48
2019-04-29T07:43:55.154Z,101222.48
2019-04-29T07:46:55.639Z,101219.04
2019-04-29T07:49:12.690Z,101212.33
2019-04-29T07:51:40.841Z,101218.48
2019-04-29T07:54:11.052Z,101211.87
2019-04-29T07:56:42.292Z,101207.31
2019-04-29T07:59:11.469Z,101207.52
2019-04-29T08:01:40.310Z,101216.74
2019-04-29T08:04:09.156Z,101202.72
2019-04-29T08:06:43.031Z,101202.84
2019-04-29T08:09:09.892Z,101200.83
2019-04-29T08:11:38.839Z,101196.52
2019-04-29T08:14:07.750Z,101197.14
2019-04-29T08:16:36.636Z,101200.47
2019-04-29T08:19:05.698Z,101199.11
2019-04-29T08:21:34.566Z,101190.91
2019-04-29T08:24:03.426Z,101190.21
2019-04-29T08:26:33.716Z,101190.41
2019-04-29T08:29:03.226Z,101188.39
2019-04-29T08:31:32.138Z,101188.78
2019-04-29T08:34:01.168Z,101191.20
2019-04-29T08:36:30.147Z,101192.16
2019-04-29T08:39:08.251Z,101188.41
2019-04-29T08:41:30.096Z,101186.75
2019-04-29T08:44:27.347Z,101192.79
2019-04-29T08:47:01.819Z,101181.88
2019-04-29T08:49:30.751Z,101177.61
2019-04-29T08:51:59.853Z,101181.56
2019-04-29T08:54:28.816Z,101179.75
2019-04-29T08:57:02.947Z,101174.96
2019-04-29T08:59:28.387Z,101171.86
2019-04-29T09:01:57.365Z,101174.77
2019-04-29T09:04:28.540Z,101165.95
2019-04-29T09:06:56.853Z,101167.81
2019-04-29T09:09:29.174Z,101172.37
2019-04-29T09:11:56.264Z,101170.98
2019-04-29T09:14:25.155Z,101163.19
2019-04-29T09:16:54.235Z,101164.20
2019-04-29T09:19:23.064Z,101162.89
2019-04-29T09:21:56.071Z,101164.03
2019-04-29T09:24:24.956Z,101157.25
2019-04-29T09:26:59.995Z,101156.72
2019-04-29T09:29:35.061Z,101160.62
2019-04-29T09:32:04.863Z,101160.13
2019-04-29T09:34:33.977Z,101154.48
2019-04-29T09:37:03.044Z,101155.41
2019-04-29T09:39:43.100Z,101157.46
2019-04-29T09:42:15.529Z,101144.50
2019-04-29T09:45:02.396Z,101152.46
2019-04-29T09:47:32.001Z,101155.06
2019-04-29T09:50:01.002Z,101143.94
2019-04-29T09:52:30.045Z,101144.55
2019-04-29T09:54:59.597Z,101142.24
2019-04-29T09:57:29.595Z,101139.06
2019-04-29T10:00:05.100Z,101146.75
2019-04-29T10:02:55.229Z,101144.95
2019-04-29T10:05:41.938Z,101140.83
2019-04-29T10:08:11.274Z,101140.41
2019-04-29T10:10:40.221Z,101139.34
2019-04-29T10:13:09.539Z,101139.08
2019-04-29T10:16:02.042Z,101138.53
2019-04-29T10:18:36.833Z,101140.86
2019-04-29T10:21:08.786Z,101132.58
2019-04-29T10:23:37.694Z,101129.40
2019-04-29T10:26:06.762Z,101134.42
2019-04-29T10:28:38.248Z,101127.31
2019-04-29T10:31:08.161Z,101127.28
2019-04-29T10:33:37.053Z,101122.50
2019-04-29T10:36:07.036Z,101129.89
2019-04-29T10:38:35.958Z,101118.77
2019-04-29T10:41:23.173Z,101119.64
2019-04-29T10:44:09.902Z,101117.41
2019-04-29T10:46:54.136Z,101127.78
2019-04-29T10:49:27.811Z,101115.03
2019-04-29T10:51:58.163Z,101109.52
2019-04-29T10:54:28.509Z,101107.44
2019-04-29T10:56:57.518Z,101113.31
2019-04-29T10:59:35.589Z,101106.98
2019-04-29T11:02:33.378Z,101106.72
2019-04-29T11:05:21.164Z,101100.94
2019-04-29T11:07:51.943Z,101102.45
2019-04-29T11:10:27.138Z,101101.15
2019-04-29T11:12:56.490Z,101091.35
2019-04-29T11:15:32.605Z,101090.29
2019-04-29T11:18:03.710Z,101089.16
2019-04-29T11:20:33.326Z,101071.29
2019-04-29T11:23:14.948Z,101072.30
2019-04-29T11:25:59.191Z,101072.86
2019-04-29T11:28:29.355Z,101070.08
2019-04-29T11:30:58.298Z,101061.34
2019-04-29T11:33:35.620Z,101061.17
2019-04-29T11:36:09.241Z,101046.53
2019-04-29T11:38:40.061Z,101044.18
2019-04-29T11:41:11.717Z,101032.96
2019-04-29T11:43:40.072Z,101042.34
2019-04-29T11:46:09.968Z,101029.77
2019-04-29T11:48:40.387Z,101033.54
2019-04-29T11:51:19.592Z,101030.36
2019-04-29T11:53:48.549Z,101027.23
2019-04-29T11:56:17.526Z,101027.67
2019-04-29T11:58:53.114Z,101026.20
2019-04-29T12:01:50.860Z,101021.66
2019-04-29T12:04:33.528Z,101033.22
2019-04-29T12:07:01.314Z,101025.64
2019-04-29T12:09:32.194Z,101015.42
2019-04-29T12:12:01.300Z,101015.42
2019-04-29T12:14:39.533Z,101014.00
2019-04-29T12:17:16.142Z,101014.25
2019-04-29T12:19:45.831Z,101013.15
2019-04-29T12:22:26.844Z,101007.38
2019-04-29T12:24:45.379Z,101005.61
2019-04-29T12:27:14.726Z,101003.69
2019-04-29T12:29:48.853Z,100998.38
2019-04-29T12:32:26.902Z,101003.03
2019-04-29T12:35:21.551Z,101002.52
2019-04-29T12:38:20.447Z,100956.66
2019-04-29T12:41:20.846Z,100976.61
2019-04-29T12:43:59.194Z,100979.03
2019-04-29T12:46:31.091Z,100988.77
2019-04-29T12:49:03.489Z,100976.54
2019-04-29T12:51:30.671Z,100980.19
2019-04-29T12:53:59.661Z,100977.38
2019-04-29T12:56:36.966Z,100980.61
2019-04-29T12:59:06.848Z,100972.66
2019-04-29T13:02:04.576Z,100969.47
2019-04-29T13:04:51.356Z,100966.69
2019-04-29T13:07:32.731Z,100961.03
2019-04-29T13:10:08.521Z,100961.69
2019-04-29T13:12:39.883Z,100963.72
2019-04-29T13:15:39.480Z,100950.23
2019-04-29T13:18:16.898Z,100956.19
2019-04-29T13:20:45.613Z,100944.41
2019-04-29T13:23:19.520Z,100943.96
2019-04-29T13:25:46.291Z,100941.49
2019-04-29T13:28:29.501Z,100941.93
2019-04-29T13:30:46.851Z,100939.31
2019-04-29T13:33:16.781Z,100937.53
2019-04-29T13:35:48.469Z,100933.42
2019-04-29T13:38:16.684Z,100939.16
2019-04-29T13:40:45.686Z,100931.20
2019-04-29T13:43:14.652Z,100928.14
2019-04-29T13:45:53.062Z,100931.28
2019-04-29T13:48:55.885Z,100928.28
2019-04-29T13:51:35.317Z,100929.79
2019-04-29T13:53:59.091Z,100928.23
2019-04-29T13:56:39.393Z,100940.48
2019-04-29T13:59:01.290Z,100935.77
2019-04-29T14:01:59.952Z,100923.18
2019-04-29T14:04:30.255Z,100925.55
2019-04-29T14:06:59.148Z,100918.92
2019-04-29T14:09:28.161Z,100917.11
2019-04-29T14:12:02.877Z,100913.95
2019-04-29T14:14:28.355Z,100914.61
2019-04-29T14:17:17.256Z,100902.01
2019-04-29T14:19:40.837Z,100902.01
2019-04-29T14:21:58.540Z,100898.02
2019-04-29T14:24:27.408Z,100898.27
2019-04-29T14:26:57.547Z,100890.64
2019-04-29T14:29:28.352Z,100899.31
2019-04-29T14:32:00.810Z,100890.14
2019-04-29T14:34:36.683Z,100899.18
2019-04-29T14:37:21.386Z,100911.91
2019-04-29T14:39:37.771Z,100900.77
2019-04-29T14:42:32.040Z,100896.28
2019-04-29T14:45:08.968Z,100897.75
2019-04-29T14:47:49.430Z,100896.10
2019-04-29T14:50:20.740Z,100894.00
2019-04-29T14:52:50.504Z,100898.62
2019-04-29T14:55:24.714Z,100897.34
2019-04-29T14:57:50.267Z,100895.94
2019-04-29T15:00:31.368Z,100900.02
2019-04-29T15:03:01.099Z,100898.50
2019-04-29T15:05:32.924Z,100906.38
2019-04-29T15:08:01.561Z,100902.99
2019-04-29T15:10:32.856Z,100899.05
2019-04-29T15:13:20.730Z,100905.59
2019-04-29T15:16:04.836Z,100897.34
2019-04-29T15:18:53.145Z,100898.88
2019-04-29T15:21:47.077Z,100897.87
2019-04-29T15:24:17.624Z,100902.88
2019-04-29T15:26:46.648Z,100901.55
2019-04-29T15:29:15.715Z,100907.15
2019-04-29T15:31:47.013Z,100904.55
2019-04-29T15:34:15.388Z,100907.46
2019-04-29T15:36:44.473Z,100905.39
2019-04-29T15:39:13.790Z,100901.55
2019-04-29T15:41:42.991Z,100896.08
2019-04-29T15:44:18.835Z,100897.94
2019-04-29T15:46:46.666Z,100901.97
2019-04-29T15:49:13.251Z,100906.43
2019-04-29T15:51:44.120Z,100891.42
2019-04-29T15:54:14.360Z,100890.37
2019-04-29T15:56:43.569Z,100888.58
2019-04-29T15:59:12.667Z,100889.64
2019-04-29T16:01:42.294Z,100889.40
2019-04-29T16:04:15.823Z,100893.02
2019-04-29T16:07:06.692Z,100884.45
2019-04-29T16:09:57.320Z,100892.88
2019-04-29T16:12:40.256Z,100892.97
2019-04-29T16:15:09.292Z,100890.59
2019-04-29T16:17:39.406Z,100890.87
2019-04-29T16:20:08.570Z,100890.90
2019-04-29T16:25:11.209Z,100883.69
2019-04-29T16:27:41.647Z,100882.80
2019-04-29T16:30:10.567Z,100887.97
2019-04-29T16:32:40.605Z,100886.60
2019-04-29T16:35:10.711Z,100895.77
2019-04-29T16:37:39.723Z,100896.42
2019-04-29T16:40:09.079Z,100895.55
2019-04-29T16:42:45.330Z,100899.16
2019-04-29T16:45:14.640Z,100899.81
2019-04-29T16:47:47.469Z,100912.96
2019-04-29T16:50:15.068Z,100915.84
2019-04-29T16:52:44.541Z,100926.69
2019-04-29T16:55:13.582Z,100885.21
2019-04-29T16:57:42.608Z,100915.59
2019-04-29T17:00:14.772Z,100912.45
2019-04-29T17:02:44.190Z,100923.39
2019-04-29T17:05:13.617Z,100915.98
2019-04-29T17:07:42.594Z,100910.90
2019-04-29T17:10:21.110Z,100915.57
2019-04-29T17:12:51.262Z,100929.13
2019-04-29T17:15:25.125Z,100921.32
2019-04-29T17:17:50.962Z,100927.66
2019-04-29T17:20:20.286Z,100921.53
2019-04-29T17:22:50.538Z,100922.66
2019-04-29T17:25:19.501Z,100838.95
2019-04-29T17:28:25.699Z,100915.05
2019-04-29T17:31:12.821Z,100895.39
2019-04-29T17:33:50.957Z,100896.44
2019-04-29T17:35:14.117Z,100882.83
2019-04-29T17:36:23.807Z,100901.92
2019-04-29T17:38:51.081Z,100908.16
2019-04-29T17:41:20.077Z,100901.51
2019-04-29T17:44:10.531Z,100903.39
2019-04-29T17:46:48.263Z,100907.40
2019-04-29T17:49:35.126Z,100902.75
2019-04-29T17:52:06.780Z,100901.90
2019-04-29T17:54:39.946Z,100902.20
2019-04-29T17:57:27.926Z,100903.52
2019-04-29T18:00:05.163Z,100895.44
2019-04-29T18:02:57.359Z,100898.98
2019-04-29T18:05:53.079Z,100910.02
2019-04-29T18:08:35.625Z,100918.42
2019-04-29T18:11:08.138Z,100919.36
2019-04-29T18:13:35.886Z,100914.37
2019-04-29T18:16:17.317Z,100917.89
2019-04-29T18:18:49.191Z,100916.85
2019-04-29T18:21:43.560Z,100919.41
2019-04-29T18:24:15.430Z,100906.83
2019-04-29T18:26:57.765Z,100909.79
2019-04-29T18:29:28.398Z,100908.47
2019-04-29T18:32:00.518Z,100912.76
2019-04-29T18:34:29.306Z,100904.19
2019-04-29T18:37:00.376Z,100889.19
2019-04-29T18:39:31.673Z,100889.91
2019-04-29T18:42:03.330Z,100893.46
2019-04-29T18:44:31.228Z,100894.97
2019-04-29T18:47:00.099Z,100898.76
2019-04-29T18:49:29.014Z,100889.45
2019-04-29T18:52:02.031Z,100902.17
2019-04-29T18:54:28.657Z,100890.83
2019-04-29T18:56:57.562Z,100900.76
2019-04-29T18:59:33.644Z,100897.12
2019-04-29T19:02:00.995Z,100897.66
2019-04-29T19:04:42.302Z,100888.95
2019-04-29T19:07:11.322Z,100904.52
2019-04-29T19:09:41.604Z,100899.39
2019-04-29T19:12:10.639Z,100896.59
2019-04-29T19:14:39.613Z,100900.94
2019-04-29T19:17:08.522Z,100898.30
2019-04-29T19:19:39.279Z,100910.08
2019-04-29T19:22:09.493Z,100897.35
2019-04-29T19:24:38.675Z,100901.84
2019-04-29T19:27:09.917Z,100906.60
2019-04-29T19:29:38.837Z,100915.46
2019-04-29T19:32:08.885Z,100897.42
2019-04-29T19:34:42.780Z,100905.07
2019-04-29T19:37:08.388Z,100902.63
2019-04-29T19:39:37.331Z,100909.76
2019-04-29T19:42:06.322Z,100899.90
2019-04-29T19:44:36.760Z,100919.41
2019-04-29T19:47:05.766Z,100916.17
2019-04-29T19:49:36.042Z,100926.49
2019-04-29T19:52:05.166Z,100920.96
2019-04-29T19:54:34.211Z,100926.45
2019-04-29T19:57:06.123Z,100924.90
2019-04-29T19:59:36.121Z,100936.66
2019-04-29T20:02:09.560Z,100934.83
2019-04-29T20:04:40.917Z,100929.83
2019-04-29T20:07:11.002Z,100926.36
2019-04-29T20:09:41.548Z,100924.08
2019-04-29T20:12:13.302Z,100928.39
2019-04-29T20:14:42.373Z,100914.95
2019-04-29T20:17:31.688Z,100914.91
2019-04-29T20:20:35.028Z,100916.97
2019-04-29T20:23:02.946Z,100928.62
2019-04-29T20:25:37.840Z,100933.93
2019-04-29T20:28:05.820Z,100935.45
2019-04-29T20:30:34.637Z,100936.06
2019-04-29T20:33:09.538Z,100932.55
2019-04-29T20:35:35.768Z,100934.22
2019-04-29T20:38:05.622Z,100945.73
2019-04-29T20:40:38.842Z,100940.30
2019-04-29T20:43:08.361Z,100946.25
2019-04-29T20:45:36.833Z,100943.67
2019-04-29T20:48:06.381Z,100949.36
2019-04-29T20:50:35.735Z,100945.89
2019-04-29T20:53:22.604Z,100946.05
2019-04-29T20:55:51.901Z,100949.77
2019-04-29T20:58:23.566Z,100953.13
2019-04-29T21:00:51.703Z,100954.98
2019-04-29T21:03:29.976Z,100954.52
2019-04-29T21:06:02.197Z,100952.61
2019-04-29T21:08:25.841Z,100949.23
2019-04-29T21:10:56.475Z,100951.05
2019-04-29T21:13:33.759Z,100947.64
2019-04-29T21:16:16.483Z,100942.42
2019-04-29T21:18:52.666Z,100940.38
2019-04-29T21:21:16.203Z,100943.72
2019-04-29T21:23:48.105Z,100944.73
2019-04-29T21:26:16.455Z,100946.77
2019-04-29T21:28:47.073Z,100950.36
2019-04-29T21:31:19.817Z,100947.25
2019-04-29T21:33:50.754Z,100947.89
2019-04-29T21:36:30.704Z,100951.11
2019-04-29T21:39:06.135Z,100950.59
2019-04-29T21:41:43.144Z,100945.27
2019-04-29T21:44:12.039Z,100949.36
2019-04-29T21:46:40.941Z,100946.30
2019-04-29T21:49:11.741Z,100951.27
2019-04-29T21:51:41.799Z,100956.34
2019-04-29T21:54:14.321Z,100963.52
2019-04-29T21:56:46.270Z,100961.80
2019-04-29T21:59:12.563Z,100963.17
2019-04-29T22:01:41.647Z,100953.13
2019-04-29T22:04:10.601Z,100958.55
2019-04-29T22:06:39.479Z,100950.75
2019-04-29T22:09:11.207Z,100951.27
2019-04-29T22:11:43.469Z,100949.20
2019-04-29T22:14:16.470Z,100957.21
2019-04-29T22:16:54.281Z,100959.70
2019-04-29T22:19:26.763Z,100960.37
2019-04-29T22:22:01.460Z,100957.89
2019-04-29T22:24:28.843Z,100958.26
2019-04-29T22:27:04.114Z,100953.14
2019-04-29T22:29:32.039Z,100951.38
2019-04-29T22:31:59.578Z,100962.95
2019-04-29T22:34:29.158Z,100959.00
2019-04-29T22:37:01.020Z,100964.23
2019-04-29T22:39:30.166Z,100955.87
2019-04-29T22:42:18.302Z,100957.83
2019-04-29T22:44:47.257Z,100959.11
2019-04-29T22:47:17.391Z,100961.83
2019-04-29T22:49:46.808Z,100956.03
2019-04-29T22:52:17.520Z,100961.51
2019-04-29T22:54:46.397Z,100957.48
2019-04-29T22:57:15.682Z,100962.53
2019-04-29T22:59:45.386Z,100953.46
2019-04-29T23:02:15.761Z,100964.19
2019-04-29T23:04:49.095Z,100961.87
2019-04-29T23:07:17.620Z,100954.29
2019-04-29T23:09:46.268Z,100952.83
2019-04-29T23:12:18.786Z,100950.78
2019-04-29T23:14:47.864Z,100945.20
2019-04-29T23:17:16.791Z,100940.48
2019-04-29T23:19:50.647Z,100938.39
2019-04-29T23:22:42.969Z,100939.58
2019-04-29T23:25:21.886Z,100938.75
2019-04-29T23:27:52.715Z,100936.73
2019-04-29T23:30:24.952Z,100935.86
2019-04-29T23:32:53.856Z,100937.36
2019-04-29T23:35:24.761Z,100937.36
2019-04-29T23:37:58.717Z,100934.61
2019-04-29T23:40:24.293Z,100937.64
2019-04-29T23:42:53.220Z,100942.41
2019-04-29T23:45:22.411Z,100943.36
2019-04-29T23:47:51.418Z,100944.42
2019-04-29T23:50:20.442Z,100942.84
2019-04-29T23:52:51.825Z,100940.08
2019-04-29T23:55:20.506Z,100941.59
2019-04-29T23:58:02.840Z,100939.09
